createdAt,value
2019-01-23T00:03:52.074Z,19.53
2019-01-23T00:07:56.774Z,18.43
2019-01-23T00:12:01.467Z,18.87
2019-01-23T00:16:06.170Z,19.07
2019-01-23T00:20:10.868Z,18.77
2019-01-23T00:24:15.569Z,18.30
2019-01-23T00:28:21.237Z,20.60
2019-01-23T00:32:25.922Z,18.47
2019-01-23T00:36:30.616Z,19.27
2019-01-23T00:40:35.312Z,18.27
2019-01-23T00:44:40.014Z,17.97
2019-01-23T00:48:44.718Z,19.40
2019-01-23T00:52:49.403Z,17.47
2019-01-23T00:56:55.169Z,17.67
2019-01-23T01:00:59.866Z,17.33
2019-01-23T01:05:05.538Z,17.60
2019-01-23T01:09:10.245Z,17.40
2019-01-23T01:13:14.923Z,17.33
2019-01-23T01:17:19.625Z,17.10
2019-01-23T01:21:24.321Z,17.07
2019-01-23T01:25:29.015Z,16.63
2019-01-23T01:29:33.714Z,16.63
2019-01-23T01:33:38.402Z,19.60
2019-01-23T01:37:43.100Z,16.80
2019-01-23T01:41:47.796Z,17.13
2019-01-23T01:45:52.494Z,17.80
2019-01-23T01:49:57.197Z,17.63
2019-01-23T01:54:01.888Z,17.57
2019-01-23T01:58:10.243Z,17.10
2019-01-23T02:02:12.980Z,17.07
2019-01-23T02:06:17.682Z,16.87
2019-01-23T02:10:22.380Z,16.33
2019-01-23T02:14:27.070Z,16.47
2019-01-23T02:18:31.769Z,16.47
2019-01-23T02:22:36.475Z,14.97
2019-01-23T02:26:41.165Z,15.43
2019-01-23T02:30:45.848Z,17.87
2019-01-23T02:34:50.552Z,16.97
2019-01-23T02:38:55.251Z,16.67
2019-01-23T02:42:59.945Z,16.17
2019-01-23T02:47:04.663Z,16.83
2019-01-23T02:51:09.345Z,16.07
2019-01-23T02:55:14.043Z,16.50
2019-01-23T02:59:18.745Z,16.83
2019-01-23T03:03:23.438Z,15.57
2019-01-23T03:07:28.121Z,16.47
2019-01-23T03:11:32.819Z,16.00
2019-01-23T03:15:37.514Z,16.50
2019-01-23T03:19:42.283Z,17.93
2019-01-23T03:23:47.053Z,16.37
2019-01-23T03:27:51.745Z,16.43
2019-01-23T03:31:56.439Z,16.57
2019-01-23T03:36:01.142Z,16.40
2019-01-23T03:40:17.390Z,17.30
2019-01-23T03:44:22.092Z,17.27
2019-01-23T03:48:26.792Z,17.70
2019-01-23T03:52:31.478Z,18.37
2019-01-23T03:56:36.174Z,17.63
2019-01-23T04:00:40.873Z,15.70
2019-01-23T04:04:45.577Z,16.87
2019-01-23T04:08:51.343Z,17.43
2019-01-23T04:12:56.039Z,18.27
2019-01-23T04:17:00.743Z,17.27
2019-01-23T04:21:05.442Z,16.67
2019-01-23T04:25:10.510Z,18.80
2019-01-23T04:29:15.210Z,17.80
2019-01-23T04:33:19.904Z,16.83
2019-01-23T04:37:24.599Z,19.10
2019-01-23T04:41:29.297Z,18.73
2019-01-23T04:45:33.994Z,16.50
2019-01-23T04:49:38.681Z,17.03
2019-01-23T04:53:45.049Z,17.47
2019-01-23T04:57:49.758Z,18.23
2019-01-23T05:01:54.456Z,17.80
2019-01-23T05:05:59.148Z,17.73
2019-01-23T05:10:05.376Z,17.37
2019-01-23T05:14:10.074Z,16.87
2019-01-23T05:18:14.772Z,16.83
2019-01-23T05:22:19.481Z,16.93
2019-01-23T05:26:24.172Z,14.93
2019-01-23T05:30:28.856Z,15.60
2019-01-23T05:34:33.564Z,15.40
2019-01-23T05:38:38.269Z,17.53
2019-01-23T05:42:42.969Z,16.57
2019-01-23T05:46:47.743Z,17.90
2019-01-23T05:50:52.427Z,18.67
2019-01-23T05:54:57.126Z,16.13
2019-01-23T05:59:01.835Z,18.47
2019-01-23T06:03:06.525Z,18.07
2019-01-23T06:07:11.221Z,17.37
2019-01-23T06:11:15.911Z,18.13
2019-01-23T06:15:20.610Z,18.67
2019-01-23T06:19:26.381Z,19.43
2019-01-23T06:23:31.080Z,19.33
2019-01-23T06:27:35.847Z,18.97
2019-01-23T06:31:40.537Z,19.83
2019-01-23T06:35:45.240Z,17.07
2019-01-23T06:39:49.952Z,17.40
2019-01-23T06:43:54.648Z,18.63
2019-01-23T06:47:59.346Z,19.70
2019-01-23T06:52:04.038Z,17.97
2019-01-23T06:56:08.739Z,21.00
2019-01-23T07:00:18.790Z,19.10
2019-01-23T07:04:23.479Z,17.37
2019-01-23T07:08:28.176Z,17.17
2019-01-23T07:12:32.868Z,19.63
2019-01-23T07:16:38.636Z,25.20
2019-01-23T07:20:43.337Z,27.03
2019-01-23T07:24:48.045Z,17.70
2019-01-23T07:28:52.749Z,19.30
2019-01-23T07:32:57.441Z,21.87
2019-01-23T07:37:02.148Z,16.10
2019-01-23T07:41:07.820Z,17.63
2019-01-23T07:45:15.817Z,17.03
2019-01-23T07:49:20.511Z,16.77
2019-01-23T07:53:25.217Z,17.53
2019-01-23T07:57:29.915Z,18.47
2019-01-23T08:01:34.611Z,17.37
2019-01-23T08:05:39.309Z,16.60
2019-01-23T08:09:43.997Z,17.17
2019-01-23T08:13:48.738Z,18.47
2019-01-23T08:17:53.407Z,16.73
2019-01-23T08:21:58.109Z,18.07
2019-01-23T08:26:02.817Z,17.63
2019-01-23T08:30:10.347Z,19.17
2019-01-23T08:34:15.055Z,18.63
2019-01-23T08:38:19.752Z,18.00
2019-01-23T08:42:24.457Z,17.63
2019-01-23T08:46:29.204Z,17.53
2019-01-23T08:50:36.700Z,18.90
2019-01-23T08:54:41.405Z,18.23
2019-01-23T08:58:46.104Z,19.27
2019-01-23T09:02:50.807Z,19.43
2019-01-23T09:06:55.498Z,18.07
2019-01-23T09:11:00.195Z,16.80
2019-01-23T09:15:08.233Z,18.33
2019-01-23T09:19:12.935Z,19.20
2019-01-23T09:23:17.641Z,19.03
2019-01-23T09:27:22.327Z,20.43
2019-01-23T09:31:33.069Z,18.73
2019-01-23T09:36:06.486Z,17.97
2019-01-23T09:40:14.440Z,18.20
2019-01-23T09:44:37.534Z,19.23
2019-01-23T09:48:54.365Z,19.17
2019-01-23T09:53:02.330Z,19.50
2019-01-23T09:57:07.013Z,18.07
2019-01-23T10:01:11.710Z,19.70
2019-01-23T10:05:16.474Z,17.77
2019-01-23T10:09:21.174Z,18.37
2019-01-23T10:13:25.869Z,20.03
2019-01-23T10:17:30.562Z,18.27
2019-01-23T10:21:35.259Z,19.60
2019-01-23T10:25:39.959Z,18.30
2019-01-23T10:29:44.652Z,20.93
2019-01-23T10:33:49.355Z,21.67
2019-01-23T10:37:54.045Z,18.57
2019-01-23T10:41:58.746Z,17.10
2019-01-23T10:46:03.440Z,19.60
2019-01-23T10:50:11.176Z,20.03
2019-01-23T10:54:15.873Z,18.17
2019-01-23T10:58:20.570Z,19.73
2019-01-23T11:02:25.273Z,18.87
2019-01-23T11:06:29.974Z,18.60
2019-01-23T11:10:34.670Z,19.47
2019-01-23T11:14:39.373Z,20.30
2019-01-23T11:18:44.063Z,18.67
2019-01-23T11:22:48.762Z,18.53
2019-01-23T11:26:53.465Z,18.97
2019-01-23T11:30:58.165Z,19.17
2019-01-23T11:35:02.869Z,18.83
2019-01-23T11:39:08.292Z,18.43
2019-01-23T11:43:12.991Z,20.40
2019-01-23T11:47:17.695Z,17.83
2019-01-23T11:51:22.392Z,19.77
2019-01-23T11:55:27.091Z,19.13
2019-01-23T11:59:31.776Z,17.97
2019-01-23T12:03:36.474Z,17.97
2019-01-23T12:07:41.176Z,16.80
2019-01-23T12:11:45.883Z,18.73
2019-01-23T12:15:50.580Z,17.50
2019-01-23T12:19:55.260Z,20.00
2019-01-23T12:23:59.965Z,17.27
2019-01-23T12:28:04.665Z,17.73
2019-01-23T12:32:09.363Z,16.93
2019-01-23T12:36:14.067Z,17.40
2019-01-23T12:40:18.750Z,17.17
2019-01-23T12:44:23.453Z,16.47
2019-01-23T12:48:28.151Z,16.70
2019-01-23T12:52:32.846Z,16.13
2019-01-23T12:56:37.536Z,17.60
2019-01-23T13:00:42.238Z,16.23
2019-01-23T13:04:46.945Z,15.80
2019-01-23T13:08:51.643Z,18.73
2019-01-23T13:12:56.411Z,17.33
2019-01-23T13:17:01.106Z,15.80
2019-01-23T13:21:05.813Z,16.40
2019-01-23T13:25:24.302Z,15.27
2019-01-23T13:29:29.958Z,16.97
2019-01-23T13:33:34.667Z,17.30
2019-01-23T13:37:39.368Z,16.10
2019-01-23T13:41:44.057Z,15.40
2019-01-23T13:45:48.751Z,17.93
2019-01-23T13:49:53.464Z,16.30
2019-01-23T13:53:58.162Z,17.67
2019-01-23T13:58:02.855Z,17.47
2019-01-23T14:02:07.548Z,16.63
2019-01-23T14:06:12.243Z,16.80
2019-01-23T14:10:17.775Z,15.97
2019-01-23T14:14:22.475Z,18.37
2019-01-23T14:18:27.175Z,16.03
2019-01-23T14:22:31.868Z,16.63
2019-01-23T14:26:36.568Z,15.87
2019-01-23T14:30:42.910Z,16.27
2019-01-23T14:34:47.606Z,16.23
2019-01-23T14:38:52.301Z,17.13
2019-01-23T14:42:56.985Z,18.30
2019-01-23T14:47:01.687Z,17.87
2019-01-23T14:51:06.385Z,15.37
2019-01-23T14:55:11.351Z,16.07
2019-01-23T14:59:16.047Z,15.30
2019-01-23T15:03:20.747Z,16.33
2019-01-23T15:07:25.458Z,15.63
2019-01-23T15:11:30.156Z,16.23
2019-01-23T15:15:34.859Z,16.43
2019-01-23T15:19:39.558Z,16.47
2019-01-23T15:23:45.120Z,18.83
2019-01-23T15:27:49.823Z,18.63
2019-01-23T15:31:54.523Z,16.90
2019-01-23T15:35:59.226Z,17.43
2019-01-23T15:40:06.461Z,17.70
2019-01-23T15:44:11.156Z,16.73
2019-01-23T15:48:16.825Z,16.87
2019-01-23T15:52:21.524Z,17.30
2019-01-23T15:56:26.222Z,17.30
2019-01-23T16:00:32.251Z,16.00
2019-01-23T16:04:36.954Z,16.47
2019-01-23T16:08:41.657Z,18.23
2019-01-23T16:12:46.357Z,17.73
2019-01-23T16:16:51.069Z,16.83
2019-01-23T16:20:55.752Z,16.83
2019-01-23T16:25:01.755Z,16.93
2019-01-23T16:29:06.820Z,16.73
2019-01-23T16:33:11.525Z,17.87
2019-01-23T16:37:16.223Z,17.37
2019-01-23T16:41:20.927Z,18.30
2019-01-23T16:45:25.623Z,17.93
2019-01-23T16:49:30.316Z,21.93
2019-01-23T16:53:35.024Z,21.13
2019-01-23T16:57:39.726Z,25.23
2019-01-23T17:01:44.459Z,19.10
2019-01-23T17:05:49.157Z,26.97
2019-01-23T17:09:53.854Z,19.50
2019-01-23T17:13:58.554Z,18.73
2019-01-23T17:18:03.252Z,19.37
2019-01-23T17:22:07.997Z,18.27
2019-01-23T17:26:12.634Z,18.13
2019-01-23T17:30:18.578Z,19.47
2019-01-23T17:34:23.279Z,19.20
2019-01-23T17:38:27.980Z,17.73
2019-01-23T17:42:32.682Z,28.47
2019-01-23T17:46:37.379Z,20.73
2019-01-23T17:50:42.078Z,18.67
2019-01-23T17:54:46.776Z,20.63
2019-01-23T17:58:51.469Z,19.83
2019-01-23T18:02:56.172Z,18.10
2019-01-23T18:07:00.866Z,19.10
2019-01-23T18:11:06.540Z,19.37
2019-01-23T18:15:14.506Z,17.47
2019-01-23T18:19:19.207Z,18.07
2019-01-23T18:23:23.935Z,17.63
2019-01-23T18:27:28.634Z,19.90
2019-01-23T18:31:33.964Z,18.20
2019-01-23T18:36:00.158Z,20.17
2019-01-23T18:40:20.164Z,17.57
2019-01-23T18:44:43.317Z,18.63
2019-01-23T18:49:24.705Z,19.40
2019-01-23T18:53:29.389Z,19.97
2019-01-23T18:57:34.098Z,17.03
2019-01-23T19:01:38.869Z,18.50
2019-01-23T19:05:43.573Z,18.33
2019-01-23T19:09:48.280Z,20.73
2019-01-23T19:13:52.969Z,20.77
2019-01-23T19:17:57.710Z,18.43
2019-01-23T19:22:02.362Z,18.87
2019-01-23T19:26:07.067Z,19.30
2019-01-23T19:30:22.472Z,18.90
2019-01-23T19:34:27.393Z,19.50
2019-01-23T19:38:32.046Z,19.97
2019-01-23T19:42:36.754Z,17.87
2019-01-23T19:46:41.452Z,17.83
2019-01-23T19:50:46.153Z,18.27
2019-01-23T19:54:50.843Z,18.73
2019-01-23T19:58:55.537Z,17.97
2019-01-23T20:03:00.235Z,20.73
2019-01-23T20:07:06.007Z,17.13
2019-01-23T20:11:11.779Z,18.27
2019-01-23T20:15:18.207Z,19.93
2019-01-23T20:19:22.909Z,18.50
2019-01-23T20:23:27.606Z,17.83
2019-01-23T20:27:32.305Z,16.70
2019-01-23T20:31:37.008Z,17.60
2019-01-23T20:35:41.775Z,17.77
2019-01-23T20:39:46.474Z,17.70
2019-01-23T20:43:51.177Z,18.70
2019-01-23T20:47:57.510Z,17.30
2019-01-23T20:52:02.212Z,17.20
2019-01-23T20:56:06.906Z,16.67
2019-01-23T21:00:17.354Z,17.10
2019-01-23T21:04:22.052Z,16.77
2019-01-23T21:08:26.762Z,17.80
2019-01-23T21:12:31.457Z,17.87
2019-01-23T21:16:36.146Z,20.83
2019-01-23T21:20:40.838Z,18.67
2019-01-23T21:24:45.538Z,19.40
2019-01-23T21:28:50.255Z,18.40
2019-01-23T21:32:54.956Z,18.27
2019-01-23T21:36:59.661Z,18.80
2019-01-23T21:41:04.365Z,18.00
2019-01-23T21:45:12.105Z,18.27
2019-01-23T21:49:16.808Z,15.70
2019-01-23T21:53:21.511Z,21.23
2019-01-23T21:57:26.213Z,17.90
2019-01-23T22:01:30.915Z,19.33
2019-01-23T22:05:35.615Z,18.87
2019-01-23T22:09:40.308Z,18.77
2019-01-23T22:13:45.005Z,20.10
2019-01-23T22:17:49.705Z,20.23
2019-01-23T22:21:54.390Z,19.47
2019-01-23T22:25:59.088Z,19.13
2019-01-23T22:30:06.082Z,21.20
2019-01-23T22:34:10.784Z,21.27
2019-01-23T22:38:15.472Z,20.43
2019-01-23T22:42:20.157Z,22.20
2019-01-23T22:46:24.856Z,21.03
2019-01-23T22:50:29.554Z,21.43
2019-01-23T22:54:34.252Z,22.87
2019-01-23T22:58:38.945Z,23.23
2019-01-23T23:02:43.647Z,22.53
2019-01-23T23:06:48.347Z,23.37
2019-01-23T23:10:53.046Z,25.93
2019-01-23T23:14:57.742Z,24.73
2019-01-23T23:19:02.435Z,27.37
2019-01-23T23:23:07.133Z,28.57
2019-01-23T23:27:11.839Z,26.60
2019-01-23T23:31:16.605Z,29.67
2019-01-23T23:35:21.307Z,29.63
2019-01-23T23:39:25.990Z,28.73
2019-01-23T23:43:30.693Z,28.13
2019-01-23T23:47:35.390Z,28.17
2019-01-23T23:51:40.081Z,29.67
2019-01-23T23:55:44.783Z,31.40
2019-01-23T23:59:49.474Z,28.63
